FMMI/TNR METAR and TAF weather

Enter ICAO airport designator
Station Type Date Time Source
FMMI METAR 2022/01/23 12:30 UTC NOAA

FMMI 231230Z 12014KT 8000 -RADZ FEW010 SCT015 BKN022 21/20 Q1013 TEMPO 4000 RADZ


Station Type Date Time Source
FMMI Decoded METAR 2022/01/23 12:30 UTC NOAA

Antananarivo / Ivato, Madagascar (FMMI) 18-48S 047-29E 1276M
Jan 23, 2022 - 07:30 AM EST / 2022.01.23 1230 UTC
Wind: from the ESE (120 degrees) at 16 MPH (14 KT):0
Visibility: 4 mile(s):0
Sky conditions: mostly cloudy
Weather: light rain, drizzle
Temperature: 69 F (21 C)
Dew Point: 68 F (20 C)
Relative Humidity: 94%
Pressure (altimeter): 29.91 in. Hg (1013 hPa)
ob: FMMI 231230Z 12014KT 8000 -RADZ FEW010 SCT015 BKN022 21/20 Q1013 TEMPO 4000 RADZ
cycle: 12

Station Type Date Time Source
FMMI TAF 2022/01/23 12:09 UTC NOAA

TAF FMMI 231100Z 2312/2418 10020G30KT 9000 SCT010 SCT017CB BKN033 PROB40
TEMPO 2312/2320 4000 RADZ
BECMG 2317/2320 12010KT SCT007 BKN020 PROB40
TEMPO 2320/2418 4000 RADZ
BECMG 2404/2406 12020G30KT

Example: see airport list